sensor_id;sensor_type;location;lat;lon;timestamp;P1;durP1;ratioP1;P2;durP2;ratioP2
6973;SDS011;3527;52.376;8.990;2023-03-14T00:01:24;4.37;;;1.80;;
6973;SDS011;3527;52.376;8.990;2023-03-14T00:03:51;4.67;;;2.10;;
6973;SDS011;3527;52.376;8.990;2023-03-14T00:06:18;5.93;;;1.93;;
6973;SDS011;3527;52.376;8.990;2023-03-14T00:08:45;7.40;;;2.20;;
6973;SDS011;3527;52.376;8.990;2023-03-14T00:11:13;5.67;;;1.80;;
6973;SDS011;3527;52.376;8.990;2023-03-14T00:13:40;4.53;;;2.10;;
6973;SDS011;3527;52.376;8.990;2023-03-14T00:16:10;5.70;;;1.97;;
6973;SDS011;3527;52.376;8.990;2023-03-14T00:18:37;6.23;;;1.97;;
6973;SDS011;3527;52.376;8.990;2023-03-14T00:21:05;4.67;;;2.00;;
6973;SDS011;3527;52.376;8.990;2023-03-14T00:23:32;4.53;;;1.97;;
6973;SDS011;3527;52.376;8.990;2023-03-14T00:25:59;6.33;;;2.13;;
6973;SDS011;3527;52.376;8.990;2023-03-14T00:28:26;4.20;;;1.80;;
6973;SDS011;3527;52.376;8.990;2023-03-14T00:30:53;4.30;;;1.90;;
6973;SDS011;3527;52.376;8.990;2023-03-14T00:33:20;3.90;;;2.20;;
6973;SDS011;3527;52.376;8.990;2023-03-14T00:35:57;5.97;;;2.27;;
6973;SDS011;3527;52.376;8.990;2023-03-14T00:38:25;3.50;;;1.80;;
6973;SDS011;3527;52.376;8.990;2023-03-14T00:40:52;4.57;;;2.17;;
6973;SDS011;3527;52.376;8.990;2023-03-14T00:43:18;5.57;;;2.00;;
6973;SDS011;3527;52.376;8.990;2023-03-14T00:45:51;4.83;;;1.60;;
6973;SDS011;3527;52.376;8.990;2023-03-14T00:48:18;3.83;;;1.80;;
6973;SDS011;3527;52.376;8.990;2023-03-14T00:50:45;5.03;;;2.10;;
6973;SDS011;3527;52.376;8.990;2023-03-14T00:53:12;4.03;;;1.50;;
6973;SDS011;3527;52.376;8.990;2023-03-14T00:55:39;4.53;;;1.70;;
6973;SDS011;3527;52.376;8.990;2023-03-14T00:58:06;5.03;;;2.17;;
6973;SDS011;3527;52.376;8.990;2023-03-14T01:00:32;5.63;;;2.10;;
6973;SDS011;3527;52.376;8.990;2023-03-14T01:03:00;5.43;;;2.20;;
6973;SDS011;3527;52.376;8.990;2023-03-14T01:05:27;5.97;;;1.70;;
6973;SDS011;3527;52.376;8.990;2023-03-14T01:07:53;4.47;;;2.20;;
6973;SDS011;3527;52.376;8.990;2023-03-14T01:10:20;5.73;;;2.30;;
6973;SDS011;3527;52.376;8.990;2023-03-14T01:12:46;3.97;;;1.77;;
6973;SDS011;3527;52.376;8.990;2023-03-14T01:15:13;7.87;;;2.70;;
6973;SDS011;3527;52.376;8.990;2023-03-14T01:17:40;6.30;;;2.07;;
6973;SDS011;3527;52.376;8.990;2023-03-14T01:20:07;4.17;;;1.93;;
6973;SDS011;3527;52.376;8.990;2023-03-14T01:22:38;8.00;;;2.27;;
6973;SDS011;3527;52.376;8.990;2023-03-14T01:25:06;7.00;;;2.00;;
6973;SDS011;3527;52.376;8.990;2023-03-14T01:27:33;3.57;;;1.80;;
6973;SDS011;3527;52.376;8.990;2023-03-14T01:30:00;5.83;;;1.83;;
6973;SDS011;3527;52.376;8.990;2023-03-14T01:32:26;10.20;;;2.00;;
6973;SDS011;3527;52.376;8.990;2023-03-14T01:34:53;5.90;;;1.77;;
6973;SDS011;3527;52.376;8.990;2023-03-14T01:37:20;5.57;;;1.90;;
6973;SDS011;3527;52.376;8.990;2023-03-14T01:39:46;5.03;;;1.60;;
6973;SDS011;3527;52.376;8.990;2023-03-14T01:42:14;5.77;;;2.27;;
6973;SDS011;3527;52.376;8.990;2023-03-14T01:44:51;7.10;;;1.90;;
6973;SDS011;3527;52.376;8.990;2023-03-14T01:47:19;7.90;;;2.33;;
6973;SDS011;3527;52.376;8.990;2023-03-14T01:49:46;6.07;;;1.60;;
6973;SDS011;3527;52.376;8.990;2023-03-14T01:52:16;7.73;;;2.10;;
6973;SDS011;3527;52.376;8.990;2023-03-14T01:54:53;7.53;;;1.70;;
6973;SDS011;3527;52.376;8.990;2023-03-14T01:57:23;8.50;;;2.20;;
6973;SDS011;3527;52.376;8.990;2023-03-14T01:59:57;5.10;;;1.80;;
6973;SDS011;3527;52.376;8.990;2023-03-14T02:02:26;4.77;;;1.87;;
6973;SDS011;3527;52.376;8.990;2023-03-14T02:04:53;4.93;;;1.63;;
6973;SDS011;3527;52.376;8.990;2023-03-14T02:10:05;3.40;;;1.70;;
6973;SDS011;3527;52.376;8.990;2023-03-14T02:12:33;5.53;;;1.90;;
6973;SDS011;3527;52.376;8.990;2023-03-14T02:15:00;8.63;;;2.00;;
6973;SDS011;3527;52.376;8.990;2023-03-14T02:17:27;4.63;;;1.97;;
6973;SDS011;3527;52.376;8.990;2023-03-14T02:22:37;8.60;;;1.97;;
6973;SDS011;3527;52.376;8.990;2023-03-14T02:25:17;5.70;;;1.77;;
6973;SDS011;3527;52.376;8.990;2023-03-14T02:27:48;5.23;;;1.97;;
6973;SDS011;3527;52.376;8.990;2023-03-14T02:30:16;8.73;;;2.33;;
6973;SDS011;3527;52.376;8.990;2023-03-14T02:32:43;4.73;;;1.90;;
6973;SDS011;3527;52.376;8.990;2023-03-14T02:35:12;5.70;;;1.90;;
6973;SDS011;3527;52.376;8.990;2023-03-14T02:38:05;6.13;;;1.87;;
6973;SDS011;3527;52.376;8.990;2023-03-14T02:40:27;6.20;;;2.00;;
6973;SDS011;3527;52.376;8.990;2023-03-14T02:42:54;6.50;;;1.77;;
6973;SDS011;3527;52.376;8.990;2023-03-14T02:47:52;7.43;;;1.80;;
6973;SDS011;3527;52.376;8.990;2023-03-14T02:50:21;4.40;;;1.90;;
6973;SDS011;3527;52.376;8.990;2023-03-14T02:52:48;6.20;;;1.87;;
6973;SDS011;3527;52.376;8.990;2023-03-14T02:55:19;3.50;;;1.40;;
6973;SDS011;3527;52.376;8.990;2023-03-14T02:57:46;5.93;;;1.80;;
6973;SDS011;3527;52.376;8.990;2023-03-14T03:00:13;6.57;;;1.90;;
6973;SDS011;3527;52.376;8.990;2023-03-14T03:02:39;4.60;;;1.80;;
6973;SDS011;3527;52.376;8.990;2023-03-14T03:05:06;3.87;;;1.80;;
6973;SDS011;3527;52.376;8.990;2023-03-14T03:07:33;7.80;;;2.30;;
6973;SDS011;3527;52.376;8.990;2023-03-14T03:09:59;7.43;;;2.03;;
6973;SDS011;3527;52.376;8.990;2023-03-14T03:12:26;5.80;;;1.50;;
6973;SDS011;3527;52.376;8.990;2023-03-14T03:14:52;4.73;;;1.37;;
6973;SDS011;3527;52.376;8.990;2023-03-14T03:17:19;3.33;;;1.30;;
6973;SDS011;3527;52.376;8.990;2023-03-14T03:19:46;4.17;;;1.63;;
6973;SDS011;3527;52.376;8.990;2023-03-14T03:22:12;2.87;;;1.40;;
6973;SDS011;3527;52.376;8.990;2023-03-14T03:24:39;3.83;;;1.20;;
6973;SDS011;3527;52.376;8.990;2023-03-14T03:27:05;2.83;;;0.83;;
6973;SDS011;3527;52.376;8.990;2023-03-14T03:29:32;2.30;;;1.00;;
6973;SDS011;3527;52.376;8.990;2023-03-14T03:31:59;2.70;;;0.90;;
6973;SDS011;3527;52.376;8.990;2023-03-14T03:34:26;3.37;;;1.20;;
6973;SDS011;3527;52.376;8.990;2023-03-14T03:36:55;3.30;;;1.10;;
6973;SDS011;3527;52.376;8.990;2023-03-14T03:39:22;2.77;;;0.90;;
6973;SDS011;3527;52.376;8.990;2023-03-14T03:41:48;3.93;;;0.90;;
6973;SDS011;3527;52.376;8.990;2023-03-14T03:44:15;2.63;;;1.10;;
6973;SDS011;3527;52.376;8.990;2023-03-14T03:46:42;1.80;;;0.80;;
6973;SDS011;3527;52.376;8.990;2023-03-14T03:49:08;3.07;;;1.10;;
6973;SDS011;3527;52.376;8.990;2023-03-14T03:51:35;1.87;;;1.17;;
6973;SDS011;3527;52.376;8.990;2023-03-14T03:54:02;2.23;;;0.90;;
6973;SDS011;3527;52.376;8.990;2023-03-14T03:56:29;4.83;;;1.23;;
6973;SDS011;3527;52.376;8.990;2023-03-14T03:58:56;2.03;;;1.07;;
6973;SDS011;3527;52.376;8.990;2023-03-14T04:01:22;3.07;;;1.10;;
6973;SDS011;3527;52.376;8.990;2023-03-14T04:03:49;3.70;;;1.10;;
6973;SDS011;3527;52.376;8.990;2023-03-14T04:06:16;4.53;;;1.37;;
6973;SDS011;3527;52.376;8.990;2023-03-14T04:08:42;5.93;;;1.60;;
6973;SDS011;3527;52.376;8.990;2023-03-14T04:11:10;4.47;;;1.30;;
6973;SDS011;3527;52.376;8.990;2023-03-14T04:13:36;3.73;;;1.20;;
6973;SDS011;3527;52.376;8.990;2023-03-14T04:16:09;2.40;;;1.10;;
6973;SDS011;3527;52.376;8.990;2023-03-14T04:18:38;2.80;;;1.40;;
6973;SDS011;3527;52.376;8.990;2023-03-14T04:21:05;4.77;;;1.30;;
6973;SDS011;3527;52.376;8.990;2023-03-14T04:23:32;7.10;;;1.43;;
6973;SDS011;3527;52.376;8.990;2023-03-14T04:25:59;4.07;;;1.40;;
6973;SDS011;3527;52.376;8.990;2023-03-14T04:28:26;3.83;;;1.07;;
6973;SDS011;3527;52.376;8.990;2023-03-14T04:30:52;4.43;;;1.73;;
6973;SDS011;3527;52.376;8.990;2023-03-14T04:33:19;3.70;;;1.10;;
6973;SDS011;3527;52.376;8.990;2023-03-14T04:35:46;4.17;;;1.33;;
6973;SDS011;3527;52.376;8.990;2023-03-14T04:38:13;4.03;;;1.20;;
6973;SDS011;3527;52.376;8.990;2023-03-14T04:40:40;5.10;;;1.50;;
6973;SDS011;3527;52.376;8.990;2023-03-14T04:43:10;7.27;;;1.40;;
6973;SDS011;3527;52.376;8.990;2023-03-14T04:45:37;4.77;;;1.20;;
6973;SDS011;3527;52.376;8.990;2023-03-14T04:48:04;4.07;;;1.47;;
6973;SDS011;3527;52.376;8.990;2023-03-14T04:50:30;4.60;;;1.50;;
6973;SDS011;3527;52.376;8.990;2023-03-14T04:52:57;6.67;;;1.83;;
6973;SDS011;3527;52.376;8.990;2023-03-14T04:55:23;3.07;;;1.33;;
6973;SDS011;3527;52.376;8.990;2023-03-14T04:57:50;5.90;;;1.90;;
6973;SDS011;3527;52.376;8.990;2023-03-14T05:00:17;4.67;;;1.30;;
6973;SDS011;3527;52.376;8.990;2023-03-14T05:02:46;4.50;;;1.60;;
6973;SDS011;3527;52.376;8.990;2023-03-14T05:05:13;6.47;;;2.07;;
6973;SDS011;3527;52.376;8.990;2023-03-14T05:07:39;6.23;;;2.13;;
6973;SDS011;3527;52.376;8.990;2023-03-14T05:10:06;5.53;;;2.03;;
6973;SDS011;3527;52.376;8.990;2023-03-14T05:12:33;5.57;;;2.20;;
6973;SDS011;3527;52.376;8.990;2023-03-14T05:14:59;4.13;;;2.10;;
6973;SDS011;3527;52.376;8.990;2023-03-14T05:17:26;8.30;;;2.30;;
6973;SDS011;3527;52.376;8.990;2023-03-14T05:19:52;6.47;;;2.10;;
6973;SDS011;3527;52.376;8.990;2023-03-14T05:22:19;4.73;;;2.10;;
6973;SDS011;3527;52.376;8.990;2023-03-14T05:24:45;5.53;;;2.27;;
6973;SDS011;3527;52.376;8.990;2023-03-14T05:27:12;5.77;;;2.60;;
6973;SDS011;3527;52.376;8.990;2023-03-14T05:29:39;6.57;;;2.30;;
6973;SDS011;3527;52.376;8.990;2023-03-14T05:32:06;9.13;;;2.73;;
6973;SDS011;3527;52.376;8.990;2023-03-14T05:34:32;8.30;;;2.47;;
6973;SDS011;3527;52.376;8.990;2023-03-14T05:36:59;6.43;;;2.33;;
6973;SDS011;3527;52.376;8.990;2023-03-14T05:39:26;5.27;;;2.00;;
6973;SDS011;3527;52.376;8.990;2023-03-14T05:41:52;12.00;;;2.73;;
6973;SDS011;3527;52.376;8.990;2023-03-14T05:44:22;9.87;;;2.20;;
6973;SDS011;3527;52.376;8.990;2023-03-14T05:46:48;7.30;;;2.50;;
6973;SDS011;3527;52.376;8.990;2023-03-14T05:49:15;5.30;;;2.30;;
6973;SDS011;3527;52.376;8.990;2023-03-14T05:51:42;7.40;;;2.63;;
6973;SDS011;3527;52.376;8.990;2023-03-14T05:54:08;10.30;;;2.70;;
6973;SDS011;3527;52.376;8.990;2023-03-14T05:56:35;8.30;;;2.93;;
6973;SDS011;3527;52.376;8.990;2023-03-14T05:59:02;8.10;;;2.77;;
6973;SDS011;3527;52.376;8.990;2023-03-14T06:01:29;7.83;;;2.53;;
6973;SDS011;3527;52.376;8.990;2023-03-14T06:03:56;6.43;;;2.80;;
6973;SDS011;3527;52.376;8.990;2023-03-14T06:06:22;9.30;;;2.53;;
6973;SDS011;3527;52.376;8.990;2023-03-14T06:08:49;6.97;;;2.43;;
6973;SDS011;3527;52.376;8.990;2023-03-14T06:11:16;7.23;;;2.43;;
6973;SDS011;3527;52.376;8.990;2023-03-14T06:13:43;9.87;;;2.87;;
6973;SDS011;3527;52.376;8.990;2023-03-14T06:16:09;7.90;;;2.10;;
6973;SDS011;3527;52.376;8.990;2023-03-14T06:18:36;8.00;;;2.20;;
6973;SDS011;3527;52.376;8.990;2023-03-14T06:21:02;5.20;;;2.20;;
6973;SDS011;3527;52.376;8.990;2023-03-14T06:23:29;4.67;;;2.10;;
6973;SDS011;3527;52.376;8.990;2023-03-14T06:25:58;7.53;;;2.50;;
6973;SDS011;3527;52.376;8.990;2023-03-14T06:28:24;5.67;;;2.37;;
6973;SDS011;3527;52.376;8.990;2023-03-14T06:30:51;7.53;;;2.30;;
6973;SDS011;3527;52.376;8.990;2023-03-14T06:33:18;4.40;;;1.60;;
6973;SDS011;3527;52.376;8.990;2023-03-14T06:35:45;5.33;;;1.83;;
6973;SDS011;3527;52.376;8.990;2023-03-14T06:38:11;6.07;;;1.60;;
6973;SDS011;3527;52.376;8.990;2023-03-14T06:40:38;6.33;;;2.50;;
6973;SDS011;3527;52.376;8.990;2023-03-14T06:43:04;4.83;;;1.60;;
6973;SDS011;3527;52.376;8.990;2023-03-14T06:45:31;7.83;;;1.87;;
6973;SDS011;3527;52.376;8.990;2023-03-14T06:47:58;4.90;;;1.87;;
6973;SDS011;3527;52.376;8.990;2023-03-14T06:50:24;4.87;;;1.20;;
6973;SDS011;3527;52.376;8.990;2023-03-14T06:52:51;3.10;;;1.27;;
6973;SDS011;3527;52.376;8.990;2023-03-14T06:55:18;5.60;;;1.53;;
6973;SDS011;3527;52.376;8.990;2023-03-14T06:57:47;3.53;;;1.07;;
6973;SDS011;3527;52.376;8.990;2023-03-14T07:00:14;3.27;;;1.30;;
6973;SDS011;3527;52.376;8.990;2023-03-14T07:02:41;3.60;;;1.07;;
6973;SDS011;3527;52.376;8.990;2023-03-14T07:05:09;4.77;;;1.50;;
6973;SDS011;3527;52.376;8.990;2023-03-14T07:07:36;3.63;;;1.37;;
6973;SDS011;3527;52.376;8.990;2023-03-14T07:10:03;2.33;;;1.20;;
6973;SDS011;3527;52.376;8.990;2023-03-14T07:12:30;1.77;;;1.00;;
6973;SDS011;3527;52.376;8.990;2023-03-14T07:14:56;2.40;;;0.80;;
6973;SDS011;3527;52.376;8.990;2023-03-14T07:17:37;3.17;;;1.10;;
6973;SDS011;3527;52.376;8.990;2023-03-14T07:20:04;2.80;;;0.90;;
6973;SDS011;3527;52.376;8.990;2023-03-14T07:22:33;3.00;;;1.20;;
6973;SDS011;3527;52.376;8.990;2023-03-14T07:25:00;2.30;;;0.83;;
6973;SDS011;3527;52.376;8.990;2023-03-14T07:27:26;2.80;;;0.93;;
6973;SDS011;3527;52.376;8.990;2023-03-14T07:29:53;2.00;;;0.87;;
6973;SDS011;3527;52.376;8.990;2023-03-14T07:32:20;2.37;;;0.87;;
6973;SDS011;3527;52.376;8.990;2023-03-14T07:34:47;3.00;;;1.10;;
6973;SDS011;3527;52.376;8.990;2023-03-14T07:37:13;4.40;;;0.90;;
6973;SDS011;3527;52.376;8.990;2023-03-14T07:39:40;1.07;;;0.73;;
6973;SDS011;3527;52.376;8.990;2023-03-14T07:42:07;2.37;;;1.07;;
6973;SDS011;3527;52.376;8.990;2023-03-14T07:44:33;2.70;;;0.80;;
6973;SDS011;3527;52.376;8.990;2023-03-14T07:47:00;3.50;;;0.87;;
6973;SDS011;3527;52.376;8.990;2023-03-14T07:49:28;2.03;;;0.90;;
6973;SDS011;3527;52.376;8.990;2023-03-14T07:51:54;1.30;;;0.70;;
6973;SDS011;3527;52.376;8.990;2023-03-14T07:54:21;1.93;;;0.60;;
6973;SDS011;3527;52.376;8.990;2023-03-14T07:56:48;1.20;;;0.70;;
6973;SDS011;3527;52.376;8.990;2023-03-14T07:59:15;2.93;;;0.87;;
6973;SDS011;3527;52.376;8.990;2023-03-14T08:01:42;3.40;;;0.70;;
6973;SDS011;3527;52.376;8.990;2023-03-14T08:04:09;1.47;;;0.70;;
6973;SDS011;3527;52.376;8.990;2023-03-14T08:06:36;2.17;;;0.70;;
6973;SDS011;3527;52.376;8.990;2023-03-14T08:09:03;1.73;;;0.73;;
6973;SDS011;3527;52.376;8.990;2023-03-14T08:11:30;1.73;;;0.70;;
6973;SDS011;3527;52.376;8.990;2023-03-14T08:13:56;1.07;;;0.60;;
6973;SDS011;3527;52.376;8.990;2023-03-14T08:16:23;3.10;;;0.80;;
6973;SDS011;3527;52.376;8.990;2023-03-14T08:18:50;2.03;;;0.97;;
6973;SDS011;3527;52.376;8.990;2023-03-14T08:21:17;1.37;;;0.70;;
6973;SDS011;3527;52.376;8.990;2023-03-14T08:23:43;2.23;;;1.00;;
6973;SDS011;3527;52.376;8.990;2023-03-14T08:26:11;2.60;;;0.90;;
6973;SDS011;3527;52.376;8.990;2023-03-14T08:28:37;2.70;;;0.80;;
6973;SDS011;3527;52.376;8.990;2023-03-14T08:31:04;1.80;;;0.80;;
6973;SDS011;3527;52.376;8.990;2023-03-14T08:33:31;3.97;;;1.17;;
6973;SDS011;3527;52.376;8.990;2023-03-14T08:35:59;3.07;;;0.90;;
6973;SDS011;3527;52.376;8.990;2023-03-14T08:38:26;2.20;;;1.00;;
6973;SDS011;3527;52.376;8.990;2023-03-14T08:40:56;1.67;;;0.90;;
6973;SDS011;3527;52.376;8.990;2023-03-14T08:43:23;2.00;;;1.00;;
6973;SDS011;3527;52.376;8.990;2023-03-14T08:45:50;3.07;;;1.10;;
6973;SDS011;3527;52.376;8.990;2023-03-14T08:48:17;2.47;;;1.20;;
6973;SDS011;3527;52.376;8.990;2023-03-14T08:50:43;2.67;;;1.20;;
6973;SDS011;3527;52.376;8.990;2023-03-14T08:53:10;1.47;;;1.37;;
6973;SDS011;3527;52.376;8.990;2023-03-14T08:55:36;3.03;;;1.70;;
6973;SDS011;3527;52.376;8.990;2023-03-14T08:58:03;1.60;;;1.30;;
6973;SDS011;3527;52.376;8.990;2023-03-14T09:00:30;2.90;;;1.50;;
6973;SDS011;3527;52.376;8.990;2023-03-14T09:02:56;2.50;;;1.73;;
6973;SDS011;3527;52.376;8.990;2023-03-14T09:05:23;2.23;;;1.77;;
6973;SDS011;3527;52.376;8.990;2023-03-14T09:07:49;2.97;;;1.90;;
6973;SDS011;3527;52.376;8.990;2023-03-14T09:10:16;2.43;;;1.60;;
6973;SDS011;3527;52.376;8.990;2023-03-14T09:12:43;2.43;;;2.10;;
6973;SDS011;3527;52.376;8.990;2023-03-14T09:15:09;4.00;;;2.30;;
6973;SDS011;3527;52.376;8.990;2023-03-14T09:17:36;2.93;;;2.33;;
6973;SDS011;3527;52.376;8.990;2023-03-14T09:20:03;4.00;;;2.30;;
6973;SDS011;3527;52.376;8.990;2023-03-14T09:22:33;3.13;;;2.40;;
6973;SDS011;3527;52.376;8.990;2023-03-14T09:25:05;2.57;;;2.37;;
6973;SDS011;3527;52.376;8.990;2023-03-14T09:27:32;3.23;;;2.37;;
6973;SDS011;3527;52.376;8.990;2023-03-14T09:29:58;2.50;;;2.30;;
6973;SDS011;3527;52.376;8.990;2023-03-14T09:32:25;2.70;;;2.50;;
6973;SDS011;3527;52.376;8.990;2023-03-14T09:34:52;2.20;;;2.00;;
6973;SDS011;3527;52.376;8.990;2023-03-14T09:37:19;3.60;;;2.53;;
6973;SDS011;3527;52.376;8.990;2023-03-14T09:39:46;3.57;;;2.77;;
6973;SDS011;3527;52.376;8.990;2023-03-14T09:42:14;4.00;;;2.90;;
6973;SDS011;3527;52.376;8.990;2023-03-14T09:45:04;3.30;;;3.00;;
6973;SDS011;3527;52.376;8.990;2023-03-14T09:47:32;3.17;;;2.80;;
6973;SDS011;3527;52.376;8.990;2023-03-14T09:50:01;4.03;;;3.20;;
6973;SDS011;3527;52.376;8.990;2023-03-14T09:52:31;3.20;;;2.90;;
6973;SDS011;3527;52.376;8.990;2023-03-14T09:55:02;3.33;;;3.03;;
6973;SDS011;3527;52.376;8.990;2023-03-14T09:57:33;3.60;;;2.70;;
6973;SDS011;3527;52.376;8.990;2023-03-14T10:00:03;3.03;;;2.73;;
6973;SDS011;3527;52.376;8.990;2023-03-14T10:02:41;4.03;;;2.87;;
6973;SDS011;3527;52.376;8.990;2023-03-14T10:05:13;4.87;;;3.30;;
6973;SDS011;3527;52.376;8.990;2023-03-14T10:07:40;3.60;;;3.30;;
6973;SDS011;3527;52.376;8.990;2023-03-14T10:10:11;4.43;;;3.40;;
6973;SDS011;3527;52.376;8.990;2023-03-14T10:12:39;3.47;;;3.17;;
6973;SDS011;3527;52.376;8.990;2023-03-14T10:15:10;4.60;;;3.67;;
6973;SDS011;3527;52.376;8.990;2023-03-14T10:17:47;3.87;;;3.30;;
6973;SDS011;3527;52.376;8.990;2023-03-14T10:23:00;4.00;;;3.40;;
6973;SDS011;3527;52.376;8.990;2023-03-14T10:25:28;3.97;;;3.63;;
6973;SDS011;3527;52.376;8.990;2023-03-14T10:27:55;3.87;;;3.47;;
6973;SDS011;3527;52.376;8.990;2023-03-14T10:30:30;3.80;;;2.40;;
6973;SDS011;3527;52.376;8.990;2023-03-14T10:32:57;3.07;;;1.40;;
6973;SDS011;3527;52.376;8.990;2023-03-14T10:35:25;2.03;;;1.20;;
6973;SDS011;3527;52.376;8.990;2023-03-14T10:37:56;2.87;;;1.20;;
6973;SDS011;3527;52.376;8.990;2023-03-14T10:40:25;2.87;;;1.20;;
6973;SDS011;3527;52.376;8.990;2023-03-14T10:42:52;2.10;;;1.27;;
6973;SDS011;3527;52.376;8.990;2023-03-14T10:45:25;1.20;;;0.90;;
6973;SDS011;3527;52.376;8.990;2023-03-14T10:47:54;1.97;;;1.47;;
6973;SDS011;3527;52.376;8.990;2023-03-14T10:50:25;2.03;;;1.53;;
6973;SDS011;3527;52.376;8.990;2023-03-14T10:52:53;2.50;;;1.70;;
6973;SDS011;3527;52.376;8.990;2023-03-14T10:55:28;3.47;;;1.87;;
6973;SDS011;3527;52.376;8.990;2023-03-14T10:58:08;5.30;;;2.03;;
6973;SDS011;3527;52.376;8.990;2023-03-14T11:00:43;3.63;;;2.00;;
6973;SDS011;3527;52.376;8.990;2023-03-14T11:03:10;2.07;;;1.50;;
6973;SDS011;3527;52.376;8.990;2023-03-14T11:10:53;1.63;;;1.00;;
6973;SDS011;3527;52.376;8.990;2023-03-14T11:13:32;1.57;;;0.60;;
6973;SDS011;3527;52.376;8.990;2023-03-14T11:16:08;2.47;;;0.97;;
6973;SDS011;3527;52.376;8.990;2023-03-14T11:21:11;3.63;;;0.90;;
6973;SDS011;3527;52.376;8.990;2023-03-14T11:23:46;0.50;;;0.50;;
6973;SDS011;3527;52.376;8.990;2023-03-14T11:28:50;0.70;;;0.50;;
6973;SDS011;3527;52.376;8.990;2023-03-14T11:31:29;1.10;;;0.50;;
6973;SDS011;3527;52.376;8.990;2023-03-14T11:34:02;0.80;;;0.60;;
6973;SDS011;3527;52.376;8.990;2023-03-14T11:36:36;1.07;;;0.80;;
6973;SDS011;3527;52.376;8.990;2023-03-14T11:39:07;0.63;;;0.60;;
6973;SDS011;3527;52.376;8.990;2023-03-14T11:41:41;0.80;;;0.70;;
6973;SDS011;3527;52.376;8.990;2023-03-14T11:44:19;0.67;;;0.60;;
6973;SDS011;3527;52.376;8.990;2023-03-14T11:47:10;1.03;;;0.50;;
6973;SDS011;3527;52.376;8.990;2023-03-14T11:52:08;1.97;;;0.60;;
6973;SDS011;3527;52.376;8.990;2023-03-14T11:54:47;1.77;;;0.77;;
6973;SDS011;3527;52.376;8.990;2023-03-14T11:57:17;1.43;;;0.70;;
6973;SDS011;3527;52.376;8.990;2023-03-14T12:00:04;1.30;;;0.90;;
6973;SDS011;3527;52.376;8.990;2023-03-14T12:02:41;3.13;;;0.83;;
6973;SDS011;3527;52.376;8.990;2023-03-14T12:10:45;4.17;;;1.23;;
6973;SDS011;3527;52.376;8.990;2023-03-14T12:13:15;4.57;;;1.20;;
6973;SDS011;3527;52.376;8.990;2023-03-14T12:15:47;3.83;;;1.43;;
6973;SDS011;3527;52.376;8.990;2023-03-14T12:18:26;4.00;;;1.20;;
6973;SDS011;3527;52.376;8.990;2023-03-14T12:20:54;5.37;;;1.73;;
6973;SDS011;3527;52.376;8.990;2023-03-14T12:23:22;4.80;;;1.47;;
6973;SDS011;3527;52.376;8.990;2023-03-14T12:26:05;7.03;;;1.47;;
6973;SDS011;3527;52.376;8.990;2023-03-14T12:28:32;5.60;;;1.37;;
6973;SDS011;3527;52.376;8.990;2023-03-14T12:33:44;6.43;;;1.23;;
6973;SDS011;3527;52.376;8.990;2023-03-14T12:36:12;6.67;;;1.40;;
6973;SDS011;3527;52.376;8.990;2023-03-14T12:38:59;6.60;;;1.87;;
6973;SDS011;3527;52.376;8.990;2023-03-14T12:41:29;7.10;;;1.30;;
6973;SDS011;3527;52.376;8.990;2023-03-14T12:46:46;5.07;;;1.40;;
6973;SDS011;3527;52.376;8.990;2023-03-14T12:49:13;3.17;;;1.20;;
6973;SDS011;3527;52.376;8.990;2023-03-14T12:51:43;6.40;;;1.50;;
6973;SDS011;3527;52.376;8.990;2023-03-14T13:04:35;5.73;;;1.57;;
6973;SDS011;3527;52.376;8.990;2023-03-14T13:07:10;9.87;;;1.73;;
6973;SDS011;3527;52.376;8.990;2023-03-14T13:09:49;4.70;;;1.87;;
6973;SDS011;3527;52.376;8.990;2023-03-14T13:12:17;4.43;;;1.63;;
6973;SDS011;3527;52.376;8.990;2023-03-14T13:14:45;8.13;;;1.70;;
6973;SDS011;3527;52.376;8.990;2023-03-14T13:17:13;8.23;;;1.80;;
6973;SDS011;3527;52.376;8.990;2023-03-14T13:20:02;4.40;;;1.63;;
6973;SDS011;3527;52.376;8.990;2023-03-14T13:22:32;4.53;;;1.50;;
6973;SDS011;3527;52.376;8.990;2023-03-14T13:25:00;7.47;;;1.97;;
6973;SDS011;3527;52.376;8.990;2023-03-14T13:27:29;6.67;;;1.70;;
6973;SDS011;3527;52.376;8.990;2023-03-14T13:29:56;8.63;;;2.40;;
6973;SDS011;3527;52.376;8.990;2023-03-14T13:32:26;9.33;;;2.27;;
6973;SDS011;3527;52.376;8.990;2023-03-14T13:34:58;10.07;;;2.27;;
6973;SDS011;3527;52.376;8.990;2023-03-14T13:37:25;10.87;;;2.20;;
6973;SDS011;3527;52.376;8.990;2023-03-14T13:39:53;13.40;;;2.67;;
6973;SDS011;3527;52.376;8.990;2023-03-14T13:42:24;11.43;;;3.57;;
6973;SDS011;3527;52.376;8.990;2023-03-14T13:44:53;10.07;;;3.17;;
6973;SDS011;3527;52.376;8.990;2023-03-14T13:47:21;16.10;;;3.40;;
6973;SDS011;3527;52.376;8.990;2023-03-14T13:49:48;15.37;;;3.20;;
6973;SDS011;3527;52.376;8.990;2023-03-14T13:52:32;12.47;;;3.23;;
6973;SDS011;3527;52.376;8.990;2023-03-14T13:55:01;14.83;;;3.40;;
6973;SDS011;3527;52.376;8.990;2023-03-14T13:57:43;16.03;;;2.97;;
6973;SDS011;3527;52.376;8.990;2023-03-14T14:00:20;20.07;;;3.30;;
6973;SDS011;3527;52.376;8.990;2023-03-14T14:02:47;16.33;;;3.80;;
6973;SDS011;3527;52.376;8.990;2023-03-14T14:05:14;15.00;;;3.17;;
6973;SDS011;3527;52.376;8.990;2023-03-14T14:07:42;15.63;;;2.97;;
6973;SDS011;3527;52.376;8.990;2023-03-14T14:10:10;20.80;;;3.40;;
6973;SDS011;3527;52.376;8.990;2023-03-14T14:12:39;20.47;;;3.37;;
6973;SDS011;3527;52.376;8.990;2023-03-14T14:15:07;15.67;;;3.00;;
6973;SDS011;3527;52.376;8.990;2023-03-14T14:17:41;16.43;;;4.23;;
6973;SDS011;3527;52.376;8.990;2023-03-14T14:23:15;11.83;;;3.00;;
6973;SDS011;3527;52.376;8.990;2023-03-14T14:25:43;11.57;;;2.93;;
6973;SDS011;3527;52.376;8.990;2023-03-14T14:28:30;11.90;;;2.93;;
6973;SDS011;3527;52.376;8.990;2023-03-14T14:33:30;13.43;;;2.93;;
6973;SDS011;3527;52.376;8.990;2023-03-14T14:36:03;13.33;;;3.93;;
6973;SDS011;3527;52.376;8.990;2023-03-14T14:38:30;13.77;;;2.60;;
6973;SDS011;3527;52.376;8.990;2023-03-14T14:40:59;7.93;;;2.40;;
6973;SDS011;3527;52.376;8.990;2023-03-14T14:43:27;8.17;;;2.43;;
6973;SDS011;3527;52.376;8.990;2023-03-14T14:45:54;8.53;;;2.50;;
6973;SDS011;3527;52.376;8.990;2023-03-14T14:48:23;10.93;;;2.57;;
6973;SDS011;3527;52.376;8.990;2023-03-14T14:51:00;12.33;;;2.20;;
6973;SDS011;3527;52.376;8.990;2023-03-14T14:53:41;7.87;;;1.90;;
6973;SDS011;3527;52.376;8.990;2023-03-14T14:56:19;7.73;;;2.13;;
6973;SDS011;3527;52.376;8.990;2023-03-14T14:58:48;9.03;;;2.03;;
6973;SDS011;3527;52.376;8.990;2023-03-14T15:01:16;6.03;;;1.90;;
6973;SDS011;3527;52.376;8.990;2023-03-14T15:03:44;6.53;;;2.37;;
6973;SDS011;3527;52.376;8.990;2023-03-14T15:06:12;11.60;;;1.90;;
6973;SDS011;3527;52.376;8.990;2023-03-14T15:08:39;3.73;;;1.80;;
6973;SDS011;3527;52.376;8.990;2023-03-14T15:11:06;9.97;;;2.20;;
6973;SDS011;3527;52.376;8.990;2023-03-14T15:13:32;6.33;;;2.10;;
6973;SDS011;3527;52.376;8.990;2023-03-14T15:16:00;6.17;;;2.27;;
6973;SDS011;3527;52.376;8.990;2023-03-14T15:18:27;9.30;;;1.70;;
6973;SDS011;3527;52.376;8.990;2023-03-14T15:20:56;10.43;;;3.07;;
6973;SDS011;3527;52.376;8.990;2023-03-14T15:23:23;8.73;;;1.87;;
6973;SDS011;3527;52.376;8.990;2023-03-14T15:25:50;6.40;;;1.83;;
6973;SDS011;3527;52.376;8.990;2023-03-14T15:30:49;10.87;;;1.90;;
6973;SDS011;3527;52.376;8.990;2023-03-14T15:33:16;4.57;;;1.80;;
6973;SDS011;3527;52.376;8.990;2023-03-14T15:35:42;7.23;;;1.60;;
6973;SDS011;3527;52.376;8.990;2023-03-14T15:38:10;14.07;;;2.50;;
6973;SDS011;3527;52.376;8.990;2023-03-14T15:40:38;7.93;;;2.07;;
6973;SDS011;3527;52.376;8.990;2023-03-14T15:43:05;7.43;;;2.30;;
6973;SDS011;3527;52.376;8.990;2023-03-14T15:45:32;7.87;;;1.60;;
6973;SDS011;3527;52.376;8.990;2023-03-14T15:47:59;7.27;;;1.90;;
6973;SDS011;3527;52.376;8.990;2023-03-14T15:50:25;4.87;;;1.73;;
6973;SDS011;3527;52.376;8.990;2023-03-14T15:52:52;8.40;;;1.97;;
6973;SDS011;3527;52.376;8.990;2023-03-14T15:55:19;8.23;;;1.83;;
6973;SDS011;3527;52.376;8.990;2023-03-14T15:57:46;8.43;;;1.97;;
6973;SDS011;3527;52.376;8.990;2023-03-14T16:00:14;13.10;;;1.87;;
6973;SDS011;3527;52.376;8.990;2023-03-14T16:02:41;4.13;;;1.60;;
6973;SDS011;3527;52.376;8.990;2023-03-14T16:05:11;7.00;;;1.80;;
6973;SDS011;3527;52.376;8.990;2023-03-14T16:07:38;6.63;;;1.63;;
6973;SDS011;3527;52.376;8.990;2023-03-14T16:10:05;5.70;;;1.77;;
6973;SDS011;3527;52.376;8.990;2023-03-14T16:12:33;6.93;;;2.13;;
6973;SDS011;3527;52.376;8.990;2023-03-14T16:15:00;6.90;;;1.80;;
6973;SDS011;3527;52.376;8.990;2023-03-14T16:17:26;7.53;;;1.80;;